Time;durP1;ratioP1;P1;durP2;ratioP2;P2;SDS_P1;SDS_P2;PMS_P1;PMS_P2;Temp;Humidity;BMP_temperature;BMP_pressure;BME280_temperature;BME280_humidity;BME280_pressure;Samples;Min_cycle;Max_cycle;Signal;HPM_P1;HPM_P2
2022/05/01 00:00:27;;;;;;;22.33;14.83;;;11.80;71.50;;;;;;4956829;29;20571;-72
2022/05/01 00:02:54;;;;;;;21.47;14.97;;;11.80;71.90;;;;;;4957796;28;20197;-71
2022/05/01 00:05:21;;;;;;;23.57;15.47;;;11.80;72.30;;;;;;4957445;29;20204;-72
2022/05/01 00:07:50;;;;;;;23.07;15.03;;;11.80;72.50;;;;;;4958544;28;20219;-72
2022/05/01 00:10:17;;;;;;;20.13;14.63;;;11.80;72.60;;;;;;4960207;28;20272;-73
2022/05/01 00:12:44;;;;;;;23.87;15.37;;;11.80;72.80;;;;;;4976596;28;20300;-72
2022/05/01 00:15:11;;;;;;;24.53;16.20;;;11.70;73.00;;;;;;4976581;28;20240;-72
2022/05/01 00:17:38;;;;;;;25.10;15.60;;;11.80;73.20;;;;;;4976192;28;20311;-71
2022/05/01 00:20:07;;;;;;;21.83;15.37;;;11.70;73.30;;;;;;4976863;28;20671;-70
2022/05/01 00:22:34;;;;;;;27.53;16.43;;;11.70;73.50;;;;;;4975956;28;20233;-70
2022/05/01 00:25:02;;;;;;;28.60;16.60;;;11.70;73.70;;;;;;4976861;28;20302;-71
2022/05/01 00:27:30;;;;;;;25.03;16.43;;;11.70;74.00;;;;;;4976709;28;20296;-71
2022/05/01 00:29:57;;;;;;;22.60;16.27;;;11.60;74.20;;;;;;4976857;28;20204;-71
2022/05/01 00:32:25;;;;;;;24.27;16.70;;;11.60;74.60;;;;;;4976693;28;20722;-72
2022/05/01 00:37:37;;;;;;;24.53;16.33;;;11.60;75.10;;;;;;4976401;28;20264;-72
2022/05/01 00:40:06;;;;;;;24.87;16.57;;;11.60;75.50;;;;;;4976151;28;20629;-72
2022/05/01 00:42:33;;;;;;;27.47;16.30;;;11.60;75.80;;;;;;4975634;28;20236;-70
2022/05/01 00:44:59;;;;;;;22.37;15.53;;;11.60;75.90;;;;;;4975682;28;20291;-71
2022/05/01 00:47:26;;;;;;;24.80;15.53;;;11.60;76.30;;;;;;4975363;28;20291;-71
2022/05/01 00:49:53;;;;;;;24.93;15.77;;;11.60;76.40;;;;;;4975504;28;20259;-71
2022/05/01 00:52:23;;;;;;;28.90;15.73;;;11.50;76.30;;;;;;4965411;28;20205;-72
2022/05/01 00:54:50;;;;;;;22.77;15.30;;;11.50;77.10;;;;;;4956509;29;20260;-72
2022/05/01 00:57:18;;;;;;;22.23;15.10;;;11.50;77.60;;;;;;4961651;28;20228;-73
2022/05/01 00:59:47;;;;;;;24.63;15.33;;;11.50;78.00;;;;;;4958189;28;20473;-71
2022/05/01 01:02:14;;;;;;;23.37;15.70;;;11.50;78.40;;;;;;4956617;29;20211;-72
2022/05/01 01:04:42;;;;;;;23.03;15.37;;;11.50;78.70;;;;;;4956489;29;20337;-72
2022/05/01 01:07:08;;;;;;;25.30;15.33;;;11.50;78.80;;;;;;4956352;29;20247;-72
2022/05/01 01:09:36;;;;;;;23.97;15.10;;;11.60;79.00;;;;;;4956498;29;20245;-71
2022/05/01 01:14:50;;;;;;;24.40;15.07;;;11.50;79.70;;;;;;4959087;28;20730;-72
2022/05/01 01:17:17;;;;;;;23.43;14.37;;;11.40;79.90;;;;;;4960088;29;20300;-73
2022/05/01 01:19:43;;;;;;;23.47;14.10;;;11.40;80.30;;;;;;4960295;29;20213;-72
2022/05/01 01:22:12;;;;;;;20.10;13.80;;;11.30;80.60;;;;;;4960054;29;20288;-71
2022/05/01 01:24:41;;;;;;;21.17;13.23;;;11.20;81.10;;;;;;4960222;29;20215;-71
2022/05/01 01:27:09;;;;;;;20.03;13.60;;;11.20;81.70;;;;;;4962581;28;20300;-71
2022/05/01 01:32:24;;;;;;;21.97;13.53;;;11.10;82.90;;;;;;4960088;29;20188;-71
2022/05/01 01:34:53;;;;;;;19.43;12.67;;;11.00;83.50;;;;;;4959889;29;20212;-71
2022/05/01 01:37:24;;;;;;;21.93;13.80;;;11.00;84.10;;;;;;4959551;29;20212;-71
2022/05/01 01:39:52;;;;;;;19.27;12.37;;;11.00;85.00;;;;;;4959864;28;20576;-71
2022/05/01 01:42:19;;;;;;;20.80;13.10;;;10.90;85.70;;;;;;4959192;29;20240;-72
2022/05/01 01:44:46;;;;;;;18.30;13.67;;;10.90;86.40;;;;;;4959584;29;20206;-72
2022/05/01 01:47:14;;;;;;;18.90;12.60;;;10.80;87.20;;;;;;4959837;29;20201;-72
2022/05/01 01:49:41;;;;;;;24.77;12.80;;;10.70;88.00;;;;;;4959943;29;20209;-71
2022/05/01 01:52:08;;;;;;;18.93;12.63;;;10.60;88.70;;;;;;4960584;29;20312;-71
2022/05/01 01:54:37;;;;;;;20.73;13.20;;;10.60;89.80;;;;;;4959488;29;20840;-72
2022/05/01 01:57:05;;;;;;;17.70;11.93;;;10.50;90.30;;;;;;4962222;28;20670;-72
2022/05/01 01:59:32;;;;;;;17.77;12.03;;;10.50;90.80;;;;;;4979136;28;20717;-71
2022/05/01 02:01:58;;;;;;;18.83;12.20;;;10.50;91.40;;;;;;4978925;28;20283;-71
2022/05/01 02:04:25;;;;;;;16.90;12.00;;;10.40;92.00;;;;;;4979327;28;20698;-72
2022/05/01 02:06:52;;;;;;;20.13;12.73;;;10.30;92.40;;;;;;4979106;28;20232;-72
2022/05/01 02:09:19;;;;;;;18.13;12.80;;;10.30;93.10;;;;;;4978887;28;20207;-71
2022/05/01 02:11:47;;;;;;;17.77;12.07;;;10.30;93.80;;;;;;4977434;28;20299;-72
2022/05/01 02:14:14;;;;;;;22.13;12.07;;;10.20;94.40;;;;;;4978704;28;20205;-73
2022/05/01 02:16:41;;;;;;;16.27;11.57;;;10.20;95.20;;;;;;4979300;28;20239;-74
2022/05/01 02:19:08;;;;;;;17.50;11.80;;;10.10;95.80;;;;;;4978458;28;20263;-72
2022/05/01 02:21:35;;;;;;;16.07;11.57;;;10.10;96.40;;;;;;4977750;28;20311;-72
2022/05/01 02:24:03;;;;;;;19.67;12.13;;;10.00;97.20;;;;;;4977511;28;20580;-73
2022/05/01 02:26:30;;;;;;;15.33;11.13;;;9.90;98.30;;;;;;4976835;28;20232;-72
2022/05/01 02:29:00;;;;;;;15.23;11.50;;;9.90;98.90;;;;;;4978199;28;20208;-72
2022/05/01 02:31:27;;;;;;;14.80;11.10;;;9.90;99.40;;;;;;4978773;28;20239;-72
2022/05/01 02:33:55;;;;;;;20.10;10.73;;;9.90;99.90;;;;;;4979027;28;20722;-72
2022/05/01 02:36:21;;;;;;;16.00;11.13;;;9.90;99.90;;;;;;4978163;28;20205;-73
2022/05/01 02:38:49;;;;;;;15.80;11.03;;;9.90;99.90;;;;;;4977986;28;20311;-72
2022/05/01 02:41:16;;;;;;;12.83;10.13;;;9.90;99.90;;;;;;4977823;28;20272;-73
2022/05/01 02:43:43;;;;;;;17.20;10.83;;;9.90;99.90;;;;;;4978030;28;20208;-72
2022/05/01 02:46:11;;;;;;;15.90;10.73;;;9.90;99.90;;;;;;4978327;28;20229;-72
2022/05/01 02:48:38;;;;;;;16.30;11.40;;;10.00;99.90;;;;;;4978628;28;20205;-72
2022/05/01 02:51:05;;;;;;;19.07;10.47;;;9.90;99.90;;;;;;4978759;28;20232;-71
2022/05/01 02:53:32;;;;;;;18.20;10.90;;;9.90;99.90;;;;;;4978425;28;20247;-72
2022/05/01 02:56:00;;;;;;;19.07;11.87;;;9.90;99.90;;;;;;4977884;28;20209;-72
2022/05/01 02:58:28;;;;;;;19.33;11.13;;;9.90;99.90;;;;;;4961881;28;20233;-71
2022/05/01 03:00:56;;;;;;;11.83;9.43;;;9.90;99.90;;;;;;4958763;29;20206;-72
2022/05/01 03:03:25;;;;;;;17.43;10.90;;;9.90;99.90;;;;;;4958967;29;20260;-72
2022/05/01 03:05:52;;;;;;;15.37;10.20;;;9.90;99.90;;;;;;4958235;29;20664;-71
2022/05/01 03:08:19;;;;;;;14.57;10.70;;;10.00;99.90;;;;;;4958750;29;20205;-72
2022/05/01 03:10:47;;;;;;;14.80;10.83;;;10.00;99.90;;;;;;4958524;29;20210;-72
2022/05/01 03:13:14;;;;;;;14.03;10.23;;;10.00;99.90;;;;;;4958559;29;20701;-72
2022/05/01 03:15:41;;;;;;;14.67;10.23;;;10.00;99.90;;;;;;4958751;29;20201;-72
2022/05/01 03:23:39;;;;;;;14.43;9.57;;;9.90;99.90;;;;;;4957987;29;20260;-71
2022/05/01 03:26:06;;;;;;;12.53;9.37;;;9.90;99.90;;;;;;4970406;28;20681;-72
2022/05/01 03:28:33;;;;;;;14.10;9.47;;;9.90;99.90;;;;;;4971302;28;20205;-72
2022/05/01 03:31:00;;;;;;;16.33;10.47;;;10.00;99.90;;;;;;4957764;29;20232;-72
2022/05/01 03:33:27;;;;;;;12.33;9.20;;;9.90;99.90;;;;;;4957986;29;20300;-71
2022/05/01 03:35:57;;;;;;;11.70;9.47;;;9.90;99.90;;;;;;4958190;29;20205;-72
2022/05/01 03:38:24;;;;;;;14.67;9.90;;;9.90;99.90;;;;;;4957279;28;20236;-72
2022/05/01 03:40:51;;;;;;;13.23;9.33;;;10.00;99.90;;;;;;4957822;29;20335;-70
2022/05/01 03:43:18;;;;;;;15.40;9.10;;;10.00;99.90;;;;;;4957901;29;20212;-71
2022/05/01 03:45:44;;;;;;;13.50;9.73;;;10.00;99.90;;;;;;4957662;29;20701;-72
2022/05/01 03:48:12;;;;;;;11.77;9.57;;;10.00;99.90;;;;;;4957701;29;20210;-72
2022/05/01 03:50:40;;;;;;;14.10;9.43;;;9.90;99.90;;;;;;4957572;29;20216;-72
2022/05/01 03:53:08;;;;;;;11.90;9.73;;;10.00;99.90;;;;;;4957214;29;20202;-72
2022/05/01 03:55:36;;;;;;;11.83;9.10;;;9.90;99.90;;;;;;4956834;29;20691;-72
2022/05/01 03:58:04;;;;;;;14.63;10.20;;;9.80;99.90;;;;;;4970819;28;20232;-72
2022/05/01 04:00:31;;;;;;;12.73;9.03;;;9.80;99.90;;;;;;4977510;28;20577;-72
2022/05/01 04:02:58;;;;;;;14.33;8.70;;;9.80;99.90;;;;;;4962627;28;20232;-73
2022/05/01 04:05:25;;;;;;;12.20;9.20;;;9.80;99.90;;;;;;4957256;29;20292;-73
2022/05/01 04:07:52;;;;;;;12.33;8.77;;;9.80;99.90;;;;;;4956909;29;20221;-72
2022/05/01 04:10:20;;;;;;;11.27;8.80;;;9.80;99.90;;;;;;4957353;29;20292;-72
2022/05/01 04:12:47;;;;;;;11.23;8.67;;;9.80;99.90;;;;;;4957157;29;20642;-72
2022/05/01 04:15:15;;;;;;;13.53;8.53;;;9.90;99.90;;;;;;4957219;29;20213;-72
2022/05/01 04:17:42;;;;;;;10.60;8.27;;;9.90;99.90;;;;;;4964221;28;20204;-73
2022/05/01 04:20:12;;;;;;;11.10;9.27;;;9.90;99.90;;;;;;4976339;28;20301;-72
2022/05/01 04:22:40;;;;;;;14.07;9.30;;;10.00;99.90;;;;;;4975603;28;20279;-72
2022/05/01 04:25:14;;;;;;;12.37;9.00;;;10.10;99.90;;;;;;4975686;28;20551;-71
2022/05/01 04:27:43;;;;;;;12.50;9.03;;;10.20;99.90;;;;;;4975915;28;20602;-71
2022/05/01 04:30:11;;;;;;;11.67;8.43;;;10.20;99.90;;;;;;4975691;28;20201;-71
2022/05/01 04:32:48;;;;;;;10.67;8.30;;;10.30;99.90;;;;;;4976081;28;20208;-73
2022/05/01 04:35:21;;;;;;;13.63;9.30;;;10.30;99.90;;;;;;4976038;28;20220;-72
2022/05/01 04:37:47;;;;;;;13.07;8.60;;;10.40;99.90;;;;;;4976545;28;20224;-72
2022/05/01 04:40:15;;;;;;;16.00;9.73;;;10.40;99.90;;;;;;4976225;28;20319;-73
2022/05/01 04:42:43;;;;;;;12.80;8.80;;;10.40;99.90;;;;;;4975679;28;20196;-72
2022/05/01 04:45:11;;;;;;;14.20;8.83;;;10.40;99.90;;;;;;4975499;28;20292;-72
2022/05/01 04:47:38;;;;;;;12.57;9.03;;;10.50;99.90;;;;;;4968334;28;20201;-72
2022/05/01 04:50:05;;;;;;;12.40;8.50;;;10.50;99.90;;;;;;4956498;28;20202;-72
2022/05/01 04:52:32;;;;;;;11.03;8.13;;;10.60;99.90;;;;;;4956831;29;20220;-72
2022/05/01 04:54:59;;;;;;;11.47;8.30;;;10.60;99.90;;;;;;4956593;29;20746;-72
2022/05/01 04:57:26;;;;;;;16.00;9.17;;;10.70;99.90;;;;;;4956830;29;20296;-72
2022/05/01 04:59:54;;;;;;;11.53;8.47;;;10.70;99.90;;;;;;4956708;29;20243;-73
2022/05/01 05:02:21;;;;;;;10.87;8.50;;;10.80;99.90;;;;;;4956585;29;20253;-72
2022/05/01 05:04:48;;;;;;;12.87;8.83;;;10.80;99.90;;;;;;4956276;29;20241;-72
2022/05/01 05:07:15;;;;;;;13.27;8.90;;;10.80;99.90;;;;;;4956079;29;20216;-71
2022/05/01 05:09:56;;;;;;;14.53;9.27;;;10.90;99.90;;;;;;4956365;29;20299;-72
2022/05/01 05:12:23;;;;;;;18.37;9.37;;;10.90;99.90;;;;;;4956486;29;20201;-71
2022/05/01 05:14:51;;;;;;;10.83;8.93;;;11.00;99.90;;;;;;4956670;29;20204;-72
2022/05/01 05:17:20;;;;;;;12.43;9.07;;;11.10;99.90;;;;;;4956409;28;20216;-72
2022/05/01 05:19:48;;;;;;;12.20;8.90;;;11.20;99.90;;;;;;4956319;29;20320;-72
2022/05/01 05:22:15;;;;;;;11.43;7.70;;;11.20;99.90;;;;;;4956449;29;20265;-72
2022/05/01 05:24:42;;;;;;;13.90;8.37;;;11.20;99.90;;;;;;4956718;29;20227;-71
2022/05/01 05:27:09;;;;;;;10.63;8.13;;;11.30;99.90;;;;;;4956573;29;20209;-71
2022/05/01 05:29:36;;;;;;;13.30;8.37;;;11.30;99.90;;;;;;4956043;29;20197;-73
2022/05/01 05:32:04;;;;;;;13.63;9.07;;;11.40;99.90;;;;;;4956253;29;20205;-72
2022/05/01 05:34:32;;;;;;;13.87;7.57;;;11.50;99.90;;;;;;4956218;29;20288;-73
2022/05/01 05:36:59;;;;;;;12.57;8.80;;;11.50;99.90;;;;;;4956288;29;20611;-72
2022/05/01 05:39:26;;;;;;;14.07;8.80;;;11.60;99.90;;;;;;4965082;28;20221;-72
2022/05/01 05:41:53;;;;;;;11.03;8.23;;;11.80;99.90;;;;;;4974636;28;20299;-71
2022/05/01 05:44:20;;;;;;;9.70;8.07;;;11.90;99.90;;;;;;4975024;28;20200;-72
2022/05/01 05:46:47;;;;;;;11.13;7.97;;;11.90;99.90;;;;;;4975341;28;20232;-72
2022/05/01 05:49:13;;;;;;;13.53;8.13;;;12.00;99.80;;;;;;4975395;28;20292;-72
2022/05/01 05:51:42;;;;;;;10.73;8.13;;;12.00;99.40;;;;;;4975310;28;20299;-71
2022/05/01 05:54:08;;;;;;;11.07;7.40;;;12.10;99.40;;;;;;4975163;28;20639;-71
2022/05/01 05:56:35;;;;;;;8.50;6.97;;;12.30;99.30;;;;;;4974935;28;20243;-72
2022/05/01 05:59:02;;;;;;;8.90;6.83;;;12.40;98.60;;;;;;4975090;28;20323;-71
2022/05/01 06:01:29;;;;;;;9.43;6.33;;;12.50;98.10;;;;;;4978416;28;20204;-72
2022/05/01 06:03:56;;;;;;;11.57;7.60;;;12.60;97.60;;;;;;4978795;28;20209;-71
2022/05/01 06:06:23;;;;;;;8.87;6.87;;;12.70;97.20;;;;;;4979023;28;20200;-71
2022/05/01 06:08:51;;;;;;;9.97;6.80;;;12.80;96.90;;;;;;4973011;28;20236;-71
2022/05/01 06:11:18;;;;;;;7.53;6.50;;;12.80;96.50;;;;;;4958757;29;20292;-72
2022/05/01 06:13:45;;;;;;;12.00;7.20;;;13.00;96.30;;;;;;4959157;29;20623;-72
2022/05/01 06:16:12;;;;;;;8.33;6.50;;;13.00;95.80;;;;;;4959091;29;20778;-72
2022/05/01 06:18:39;;;;;;;9.77;6.73;;;13.10;95.60;;;;;;4958798;29;20211;-72
2022/05/01 06:21:06;;;;;;;10.80;6.70;;;13.20;95.00;;;;;;4959182;29;20256;-72
2022/05/01 06:23:34;;;;;;;8.33;6.50;;;13.20;94.50;;;;;;4958809;29;20300;-72
2022/05/01 06:26:04;;;;;;;8.77;6.23;;;13.30;94.10;;;;;;4958695;29;20320;-72
2022/05/01 06:28:31;;;;;;;8.60;6.33;;;13.30;93.70;;;;;;4958379;29;20216;-70
2022/05/01 06:30:59;;;;;;;9.87;6.60;;;13.40;93.70;;;;;;4959005;29;20204;-72
2022/05/01 06:33:27;;;;;;;9.43;6.40;;;13.50;93.40;;;;;;4958862;29;20667;-72
2022/05/01 06:35:55;;;;;;;9.20;6.37;;;13.50;92.80;;;;;;4958784;29;20283;-73
2022/05/01 06:38:22;;;;;;;7.20;5.83;;;13.60;92.30;;;;;;4961647;28;20666;-72
2022/05/01 06:40:50;;;;;;;8.53;5.77;;;13.70;92.00;;;;;;4977425;28;20279;-72
2022/05/01 06:43:19;;;;;;;8.70;6.10;;;13.80;91.70;;;;;;4978120;28;20240;-72
2022/05/01 06:45:47;;;;;;;8.23;6.47;;;13.90;91.40;;;;;;4977855;28;20208;-72
2022/05/01 06:48:14;;;;;;;8.17;5.93;;;14.10;91.20;;;;;;4978243;28;20619;-73
2022/05/01 06:50:41;;;;;;;7.00;5.13;;;14.30;90.80;;;;;;4977271;28;20247;-72
2022/05/01 06:53:08;;;;;;;7.97;5.80;;;14.40;90.10;;;;;;4977267;28;20267;-72
2022/05/01 06:55:35;;;;;;;7.37;5.50;;;14.60;88.90;;;;;;4977830;28;20232;-72
2022/05/01 06:58:02;;;;;;;6.53;5.43;;;14.70;87.30;;;;;;4977151;28;20209;-74
2022/05/01 07:00:31;;;;;;;8.00;5.90;;;14.80;85.90;;;;;;4977451;28;20260;-73
2022/05/01 07:02:58;;;;;;;7.43;5.97;;;14.90;85.60;;;;;;4977306;28;20296;-73
2022/05/01 07:05:26;;;;;;;6.80;5.43;;;15.10;85.60;;;;;;4977530;28;20292;-71
2022/05/01 07:07:54;;;;;;;7.70;5.10;;;15.20;85.00;;;;;;4978219;28;20633;-73
2022/05/01 07:10:22;;;;;;;7.60;5.47;;;15.40;83.90;;;;;;4958897;28;20264;-73
2022/05/01 07:12:49;;;;;;;6.57;4.93;;;15.60;82.20;;;;;;4957817;28;20576;-73
2022/05/01 07:15:16;;;;;;;6.63;5.43;;;15.70;80.40;;;;;;4958290;29;20201;-71
2022/05/01 07:17:45;;;;;;;8.13;5.27;;;15.90;79.00;;;;;;4958217;29;20212;-72
2022/05/01 07:20:12;;;;;;;7.90;5.87;;;16.00;78.20;;;;;;4958493;29;20320;-73
2022/05/01 07:22:39;;;;;;;7.80;6.30;;;16.00;77.40;;;;;;4958757;29;20312;-72
2022/05/01 07:25:07;;;;;;;6.60;5.53;;;16.10;77.10;;;;;;4959053;29;20316;-73
2022/05/01 07:27:34;;;;;;;8.73;5.63;;;16.30;76.40;;;;;;4958503;29;20209;-74
2022/05/01 07:30:01;;;;;;;10.17;5.20;;;16.40;75.30;;;;;;4958132;29;20640;-72
2022/05/01 07:32:27;;;;;;;7.07;5.73;;;16.40;74.10;;;;;;4957015;29;20251;-72
2022/05/01 07:34:56;;;;;;;6.87;6.17;;;16.60;73.00;;;;;;4958160;29;20551;-73
2022/05/01 07:37:26;;;;;;;8.47;5.77;;;16.70;72.40;;;;;;4957878;29;20671;-72
2022/05/01 07:39:54;;;;;;;10.50;5.57;;;16.90;71.70;;;;;;4958633;28;20221;-73
2022/05/01 07:42:22;;;;;;;5.90;5.30;;;17.00;71.10;;;;;;4958365;29;20769;-73
2022/05/01 07:44:49;;;;;;;8.93;6.22;;;17.20;70.70;;;;;;4959291;29;20220;-72
2022/05/01 07:47:16;;;;;;;6.85;5.50;;;17.30;69.40;;;;;;4957858;29;20292;-73
2022/05/01 07:49:43;;;;;;;9.05;5.60;;;17.40;68.40;;;;;;4958290;29;20216;-72
2022/05/01 07:52:11;;;;;;;7.57;4.88;;;17.50;67.20;;;;;;4958206;29;20742;-72
2022/05/01 07:54:38;;;;;;;8.15;5.57;;;17.60;66.30;;;;;;4958842;29;20663;-72
2022/05/01 07:57:07;;;;;;;6.63;5.23;;;17.60;66.00;;;;;;4958755;29;20216;-72
2022/05/01 07:59:33;;;;;;;6.45;4.78;;;17.70;65.40;;;;;;4958422;29;20366;-72
2022/05/01 08:02:00;;;;;;;7.00;5.15;;;17.80;64.90;;;;;;4958273;29;20746;-72
2022/05/01 08:04:29;;;;;;;8.32;5.10;;;18.00;64.40;;;;;;4958604;29;20210;-72
2022/05/01 08:06:58;;;;;;;7.55;5.47;;;18.00;63.30;;;;;;4958673;29;20216;-73
2022/05/01 08:09:26;;;;;;;8.10;4.88;;;18.20;62.70;;;;;;4961298;28;20300;-72
2022/05/01 08:11:53;;;;;;;6.57;4.32;;;18.40;62.50;;;;;;4976067;28;20208;-73
2022/05/01 08:14:21;;;;;;;6.57;4.55;;;18.70;62.00;;;;;;4969887;28;20212;-72
2022/05/01 08:16:48;;;;;;;7.05;4.45;;;18.90;60.80;;;;;;4958214;29;20213;-72
2022/05/01 08:21:59;;;;;;;6.53;4.50;;;19.30;59.20;;;;;;4957153;29;20315;-72
2022/05/01 08:24:28;;;;;;;8.40;4.40;;;19.50;58.60;;;;;;4956756;28;20233;-74
2022/05/01 08:26:56;;;;;;;8.70;4.70;;;19.60;57.80;;;;;;4969565;28;20201;-72
2022/05/01 08:29:22;;;;;;;5.22;4.20;;;19.70;57.30;;;;;;4975322;28;20204;-72
2022/05/01 08:31:49;;;;;;;3.53;3.22;;;19.80;57.10;;;;;;4966966;28;20640;-73
2022/05/01 08:34:17;;;;;;;6.35;3.60;;;19.90;56.00;;;;;;4957828;29;20714;-73
2022/05/01 08:36:45;;;;;;;4.85;3.60;;;20.00;55.20;;;;;;4958265;28;20217;-74
2022/05/01 08:39:12;;;;;;;4.00;3.60;;;20.20;54.90;;;;;;4957365;29;20210;-72
2022/05/01 08:41:40;;;;;;;6.35;3.42;;;20.40;54.20;;;;;;4956627;29;20416;-73
2022/05/01 08:44:13;;;;;;;4.45;3.67;;;20.60;53.80;;;;;;4957133;29;20280;-73
2022/05/01 08:46:53;;;;;;;4.32;3.15;;;20.60;53.00;;;;;;4956757;29;20273;-74
2022/05/01 08:49:22;;;;;;;3.47;3.10;;;20.60;52.30;;;;;;4957003;29;20635;-72
2022/05/01 08:51:51;;;;;;;4.45;3.47;;;20.60;52.20;;;;;;4961156;29;20285;-71
2022/05/01 08:54:18;;;;;;;4.88;3.30;;;20.80;51.90;;;;;;4957319;29;20209;-73
2022/05/01 08:56:48;;;;;;;6.65;4.50;;;20.90;51.90;;;;;;4957511;29;20260;-73
2022/05/01 08:59:16;;;;;;;4.32;3.40;;;21.00;51.70;;;;;;4957663;29;20210;-71
2022/05/01 09:01:45;;;;;;;5.10;3.55;;;21.00;51.20;;;;;;4956644;29;20256;-73
2022/05/01 09:04:14;;;;;;;4.75;2.95;;;20.90;51.10;;;;;;4956394;29;20209;-72
2022/05/01 09:06:43;;;;;;;3.80;3.33;;;21.00;51.20;;;;;;4956955;28;20207;-74
2022/05/01 09:09:11;;;;;;;3.80;2.88;;;21.10;51.00;;;;;;4974266;28;20563;-72
2022/05/01 09:14:27;;;;;;;5.05;3.05;;;21.40;50.50;;;;;;4975511;28;20214;-72
2022/05/01 09:17:13;;;;;;;4.45;3.40;;;21.60;50.20;;;;;;4975906;28;20305;-72
2022/05/01 09:19:40;;;;;;;6.45;2.58;;;21.80;49.90;;;;;;4975504;28;20212;-73
2022/05/01 09:22:08;;;;;;;5.93;2.72;;;21.90;49.30;;;;;;4974935;28;20713;-72
2022/05/01 09:24:35;;;;;;;3.88;2.60;;;22.00;48.00;;;;;;4976124;28;20622;-72
2022/05/01 09:27:02;;;;;;;3.35;2.70;;;22.00;47.60;;;;;;4975003;28;20634;-72
2022/05/01 09:29:34;;;;;;;5.13;2.40;;;22.10;47.60;;;;;;4976033;28;20211;-72
2022/05/01 09:32:04;;;;;;;3.85;2.13;;;22.10;47.40;;;;;;4975666;28;20633;-73
2022/05/01 09:34:35;;;;;;;5.28;2.47;;;22.40;47.00;;;;;;4975983;28;20607;-73
2022/05/01 09:37:04;;;;;;;3.22;2.03;;;22.40;45.60;;;;;;4977414;28;20626;-72
2022/05/01 09:39:32;;;;;;;2.70;2.35;;;22.40;44.50;;;;;;4960103;29;20293;-72
2022/05/01 09:42:16;;;;;;;3.55;2.20;;;22.40;44.30;;;;;;4959701;29;20328;-72
2022/05/01 09:44:44;;;;;;;3.60;1.80;;;22.40;44.40;;;;;;4960654;29;20648;-73
2022/05/01 09:47:12;;;;;;;3.03;2.25;;;22.50;43.80;;;;;;4960042;29;20304;-73
2022/05/01 09:49:49;;;;;;;7.43;1.92;;;22.60;42.80;;;;;;4960030;29;20662;-72
2022/05/01 09:52:17;;;;;;;4.10;2.10;;;22.70;42.40;;;;;;4960171;29;20209;-73
2022/05/01 09:55:02;;;;;;;3.88;2.10;;;22.80;42.10;;;;;;4978159;28;21014;-72
2022/05/01 09:57:30;;;;;;;3.33;1.90;;;22.80;41.90;;;;;;4979268;28;20207;-73
2022/05/01 09:59:58;;;;;;;7.38;1.95;;;22.70;40.70;;;;;;4979334;28;20244;-74
2022/05/01 10:02:29;;;;;;;3.00;1.70;;;22.60;40.60;;;;;;4979617;28;20268;-73
2022/05/01 10:05:03;;;;;;;2.58;1.95;;;22.70;40.90;;;;;;4979748;28;20216;-73
2022/05/01 10:07:34;;;;;;;2.50;2.20;;;22.90;40.60;;;;;;4957286;28;20305;-73
2022/05/01 10:10:03;;;;;;;4.82;2.50;;;23.00;40.90;;;;;;4961504;28;20194;-73
2022/05/01 10:12:33;;;;;;;1.85;1.55;;;23.20;41.30;;;;;;4961526;29;20272;-72
2022/05/01 10:15:03;;;;;;;5.45;2.20;;;23.50;41.30;;;;;;4960063;29;20201;-72
2022/05/01 10:17:32;;;;;;;2.25;1.83;;;23.80;40.50;;;;;;4960230;29;20245;-72
2022/05/01 10:20:00;;;;;;;2.78;2.08;;;24.10;40.40;;;;;;4960939;28;20237;-73
2022/05/01 10:22:27;;;;;;;3.47;2.33;;;24.50;40.50;;;;;;4960060;29;20592;-74
2022/05/01 10:24:54;;;;;;;2.35;1.90;;;24.50;40.00;;;;;;4960783;29;20618;-72
2022/05/01 10:27:31;;;;;;;3.20;2.15;;;24.30;39.90;;;;;;4959120;29;20202;-73
2022/05/01 10:33:26;;;;;;;2.28;2.00;;;24.10;40.20;;;;;;4959370;29;20193;-72
2022/05/01 10:36:20;;;;;;;3.22;1.88;;;24.30;39.90;;;;;;4959021;29;20221;-71
2022/05/01 10:39:02;;;;;;;3.35;2.10;;;24.20;40.10;;;;;;4958819;29;20652;-72
2022/05/01 10:41:30;;;;;;;2.83;2.05;;;23.90;40.00;;;;;;4959484;29;20245;-72
2022/05/01 10:43:58;;;;;;;3.17;2.00;;;23.70;40.20;;;;;;4958980;29;20209;-73
2022/05/01 10:46:31;;;;;;;2.28;2.08;;;23.60;40.40;;;;;;4957813;28;20205;-73
2022/05/01 10:49:01;;;;;;;3.78;1.90;;;23.70;40.60;;;;;;4959036;28;20206;-73
2022/05/01 10:51:49;;;;;;;4.25;2.03;;;23.90;40.60;;;;;;4958853;29;20202;-74
2022/05/01 10:54:39;;;;;;;2.00;1.80;;;24.00;40.20;;;;;;4958555;29;20582;-72
2022/05/01 10:57:11;;;;;;;3.08;1.80;;;24.00;40.60;;;;;;4958913;29;20205;-72
2022/05/01 10:59:39;;;;;;;2.92;1.92;;;24.10;40.20;;;;;;4958905;29;20299;-72
2022/05/01 11:02:25;;;;;;;2.47;1.90;;;24.30;40.40;;;;;;4958429;29;20233;-72
2022/05/01 11:04:54;;;;;;;3.05;1.83;;;24.50;40.30;;;;;;4958356;29;20193;-72
2022/05/01 11:07:22;;;;;;;2.42;1.75;;;24.60;40.50;;;;;;4958914;29;20225;-73
2022/05/01 11:09:50;;;;;;;3.15;1.92;;;24.60;40.30;;;;;;4958551;29;20571;-71
2022/05/01 11:12:19;;;;;;;2.88;1.85;;;24.50;40.00;;;;;;4958666;29;20201;-72
2022/05/01 11:14:58;;;;;;;2.10;1.90;;;24.40;40.20;;;;;;4958268;29;20215;-71
2022/05/01 11:17:50;;;;;;;4.00;2.03;;;24.50;39.70;;;;;;4958689;29;20201;-71
2022/05/01 11:20:31;;;;;;;4.13;2.22;;;24.50;39.40;;;;;;4958029;29;20194;-72
2022/05/01 11:23:00;;;;;;;2.15;1.73;;;24.40;39.50;;;;;;4958914;29;20220;-72
2022/05/01 11:25:38;;;;;;;2.42;2.03;;;24.50;39.30;;;;;;4957857;29;20206;-73
2022/05/01 11:28:05;;;;;;;5.10;1.92;;;24.80;38.90;;;;;;4964105;28;20307;-72
2022/05/01 11:30:37;;;;;;;3.40;2.10;;;24.90;38.80;;;;;;4977788;28;20713;-73
2022/05/01 11:33:08;;;;;;;2.13;1.65;;;24.90;38.90;;;;;;4977631;28;20215;-73
2022/05/01 11:35:55;;;;;;;3.33;1.60;;;25.00;38.90;;;;;;4977125;28;20236;-72
2022/05/01 11:38:23;;;;;;;2.95;2.08;;;25.00;38.60;;;;;;4975410;28;20208;-72
2022/05/01 11:40:57;;;;;;;1.60;1.50;;;25.00;38.60;;;;;;4976968;28;20244;-73
2022/05/01 11:43:24;;;;;;;2.35;1.67;;;24.90;38.50;;;;;;4977208;28;20213;-71
2022/05/01 11:45:51;;;;;;;1.90;1.55;;;24.70;38.80;;;;;;4976306;28;20208;-72
2022/05/01 11:48:21;;;;;;;3.30;2.00;;;24.70;38.90;;;;;;4977154;28;20200;-74
2022/05/01 11:50:50;;;;;;;1.98;1.73;;;24.80;38.50;;;;;;4977228;28;20255;-72
2022/05/01 11:53:23;;;;;;;1.70;1.60;;;24.80;38.20;;;;;;4977419;28;20204;-73
2022/05/01 12:04:27;;;;;;;2.95;1.80;;;24.80;37.90;;;;;;4976714;28;20183;-72
2022/05/01 12:07:04;;;;;;;1.98;1.85;;;25.00;38.00;;;;;;4972220;28;20216;-72
2022/05/01 12:09:34;;;;;;;3.20;1.63;;;25.20;37.80;;;;;;4969195;28;20204;-73
2022/05/01 12:12:02;;;;;;;2.97;1.67;;;25.30;37.30;;;;;;4976438;28;20211;-72
2022/05/01 12:14:29;;;;;;;3.47;1.77;;;25.40;37.20;;;;;;4977416;28;20615;-72
2022/05/01 12:16:56;;;;;;;2.22;1.70;;;25.50;37.30;;;;;;4976287;28;20207;-72
2022/05/01 12:19:36;;;;;;;2.42;1.73;;;25.40;37.10;;;;;;4976614;28;20228;-72
2022/05/01 12:22:03;;;;;;;2.42;1.83;;;25.20;37.10;;;;;;4976978;28;20232;-73
2022/05/01 12:24:30;;;;;;;4.13;1.80;;;25.10;37.60;;;;;;4976427;28;20243;-73
2022/05/01 12:26:58;;;;;;;3.05;1.77;;;25.00;37.60;;;;;;4976728;28;20654;-71
2022/05/01 12:29:25;;;;;;;1.85;1.63;;;24.80;37.20;;;;;;4976094;28;20213;-71
2022/05/01 12:32:07;;;;;;;3.00;1.90;;;24.50;37.30;;;;;;4975409;28;20196;-71
2022/05/01 12:34:38;;;;;;;2.35;1.70;;;24.20;37.40;;;;;;4975766;28;20196;-72
2022/05/01 12:37:10;;;;;;;2.80;1.73;;;23.90;38.30;;;;;;4976314;28;20638;-71
2022/05/01 12:39:37;;;;;;;2.10;1.40;;;23.50;37.80;;;;;;4963491;28;20288;-71
2022/05/01 12:45:12;;;;;;;2.50;1.55;;;23.30;38.60;;;;;;4956948;29;20188;-71
2022/05/01 12:47:41;;;;;;;1.70;1.33;;;23.30;38.20;;;;;;4957294;29;20225;-71
2022/05/01 12:50:12;;;;;;;4.30;1.90;;;23.60;37.90;;;;;;4956848;29;20614;-72
2022/05/01 12:52:41;;;;;;;2.88;2.03;;;23.90;37.70;;;;;;4957381;29;20288;-71
2022/05/01 12:55:16;;;;;;;3.75;1.65;;;24.00;37.10;;;;;;4957031;29;20217;-73
2022/05/01 12:57:50;;;;;;;3.88;1.65;;;24.10;37.20;;;;;;4956892;29;20232;-71
2022/05/01 13:00:33;;;;;;;5.25;1.70;;;24.10;36.80;;;;;;4957088;29;20237;-73
2022/05/01 13:03:17;;;;;;;2.25;1.50;;;23.90;37.20;;;;;;4956856;29;20232;-74
2022/05/01 13:05:58;;;;;;;1.83;1.60;;;23.90;37.30;;;;;;4956713;29;20192;-72
2022/05/01 13:08:25;;;;;;;3.30;1.50;;;23.90;36.90;;;;;;4975652;28;20287;-72
2022/05/01 13:11:21;;;;;;;1.63;1.52;;;23.80;36.80;;;;;;4982677;28;20251;-73
2022/05/01 13:13:50;;;;;;;3.55;1.42;;;23.90;37.00;;;;;;4974587;28;20288;-71
2022/05/01 13:16:20;;;;;;;3.45;1.65;;;23.90;37.20;;;;;;4983998;28;20666;-71
2022/05/01 13:18:47;;;;;;;3.40;1.60;;;23.90;37.30;;;;;;4983996;28;20208;-71
2022/05/01 13:21:16;;;;;;;1.65;1.50;;;23.90;37.50;;;;;;4983651;28;20529;-72
2022/05/01 13:23:43;;;;;;;2.17;1.67;;;23.90;37.20;;;;;;4983942;28;20302;-72